RJOA/HIJ METAR and TAF weather

Enter ICAO airport designator
Station Type Date Time Source
RJOA METAR 2022/01/26 13:00 UTC NOAA

RJOA 261300Z 36003KT 9999 FEW025 03/M02 Q1021


Station Type Date Time Source
RJOA Decoded METAR 2022/01/26 13:00 UTC NOAA

Hiroshima Airport, Japan (RJOA) 34-26N 132-55E 334M
Jan 26, 2022 - 08:00 AM EST / 2022.01.26 1300 UTC
Wind: from the N (360 degrees) at 3 MPH (3 KT):0
Visibility: greater than 7 mile(s):0
Sky conditions: mostly clear
Temperature: 37 F (3 C)
Dew Point: 28 F (-2 C)
Relative Humidity: 69%
Pressure (altimeter): 30.15 in. Hg (1021 hPa)
ob: RJOA 261300Z 36003KT 9999 FEW025 03/M02 Q1021
cycle: 13

Station Type Date Time Source
RJOA TAF 2022/01/26 12:30 UTC NOAA

TAF RJOA 261105Z 2612/2718 32005KT 9999 FEW025

Example: see airport list